sensor_id;sensor_type;location;lat;lon;timestamp;P1;durP1;ratioP1;P2;durP2;ratioP2
29568;SDS011;16501;51.462;14.346;2023-05-10T00:01:49;7.25;;;5.18;;
29568;SDS011;16501;51.462;14.346;2023-05-10T00:04:15;6.57;;;4.72;;
29568;SDS011;16501;51.462;14.346;2023-05-10T00:06:40;10.90;;;4.93;;
29568;SDS011;16501;51.462;14.346;2023-05-10T00:09:05;9.52;;;4.60;;
29568;SDS011;16501;51.462;14.346;2023-05-10T00:11:31;8.98;;;4.40;;
29568;SDS011;16501;51.462;14.346;2023-05-10T00:13:56;9.25;;;4.97;;
29568;SDS011;16501;51.462;14.346;2023-05-10T00:16:21;7.25;;;5.03;;
29568;SDS011;16501;51.462;14.346;2023-05-10T00:18:46;10.43;;;4.22;;
29568;SDS011;16501;51.462;14.346;2023-05-10T00:21:12;6.32;;;4.18;;
29568;SDS011;16501;51.462;14.346;2023-05-10T00:23:37;6.05;;;4.55;;
29568;SDS011;16501;51.462;14.346;2023-05-10T00:26:03;7.45;;;4.63;;
29568;SDS011;16501;51.462;14.346;2023-05-10T00:28:28;6.05;;;4.38;;
29568;SDS011;16501;51.462;14.346;2023-05-10T00:30:54;10.32;;;4.43;;
29568;SDS011;16501;51.462;14.346;2023-05-10T00:33:20;8.60;;;3.85;;
29568;SDS011;16501;51.462;14.346;2023-05-10T00:35:45;5.85;;;4.35;;
29568;SDS011;16501;51.462;14.346;2023-05-10T00:38:10;6.30;;;4.55;;
29568;SDS011;16501;51.462;14.346;2023-05-10T00:40:36;7.95;;;4.38;;
29568;SDS011;16501;51.462;14.346;2023-05-10T00:43:02;12.25;;;4.63;;
29568;SDS011;16501;51.462;14.346;2023-05-10T00:45:28;7.38;;;4.40;;
29568;SDS011;16501;51.462;14.346;2023-05-10T00:47:54;9.10;;;4.20;;
29568;SDS011;16501;51.462;14.346;2023-05-10T00:50:21;10.45;;;4.68;;
29568;SDS011;16501;51.462;14.346;2023-05-10T00:52:47;13.73;;;4.60;;
29568;SDS011;16501;51.462;14.346;2023-05-10T00:55:13;7.32;;;4.55;;
29568;SDS011;16501;51.462;14.346;2023-05-10T00:57:38;6.68;;;4.18;;
29568;SDS011;16501;51.462;14.346;2023-05-10T01:00:04;6.85;;;4.60;;
29568;SDS011;16501;51.462;14.346;2023-05-10T01:02:30;7.72;;;4.95;;
29568;SDS011;16501;51.462;14.346;2023-05-10T01:04:55;10.60;;;4.68;;
29568;SDS011;16501;51.462;14.346;2023-05-10T01:07:20;8.93;;;4.85;;
29568;SDS011;16501;51.462;14.346;2023-05-10T01:09:46;8.93;;;5.15;;
29568;SDS011;16501;51.462;14.346;2023-05-10T01:12:11;15.02;;;5.28;;
29568;SDS011;16501;51.462;14.346;2023-05-10T01:14:37;9.05;;;5.25;;
29568;SDS011;16501;51.462;14.346;2023-05-10T01:17:03;13.63;;;5.32;;
29568;SDS011;16501;51.462;14.346;2023-05-10T01:19:31;12.23;;;4.93;;
29568;SDS011;16501;51.462;14.346;2023-05-10T01:22:09;9.43;;;5.05;;
29568;SDS011;16501;51.462;14.346;2023-05-10T01:27:34;7.07;;;4.85;;
29568;SDS011;16501;51.462;14.346;2023-05-10T01:33:20;7.95;;;4.88;;
29568;SDS011;16501;51.462;14.346;2023-05-10T01:35:51;6.28;;;4.50;;
29568;SDS011;16501;51.462;14.346;2023-05-10T01:41:26;7.60;;;4.72;;
29568;SDS011;16501;51.462;14.346;2023-05-10T01:44:08;8.68;;;4.43;;
29568;SDS011;16501;51.462;14.346;2023-05-10T01:46:41;9.20;;;5.18;;
29568;SDS011;16501;51.462;14.346;2023-05-10T01:52:09;7.93;;;4.60;;
29568;SDS011;16501;51.462;14.346;2023-05-10T01:54:44;8.30;;;5.50;;
29568;SDS011;16501;51.462;14.346;2023-05-10T01:57:18;9.82;;;4.93;;
29568;SDS011;16501;51.462;14.346;2023-05-10T01:59:47;12.05;;;5.30;;
29568;SDS011;16501;51.462;14.346;2023-05-10T02:02:15;12.10;;;5.28;;
29568;SDS011;16501;51.462;14.346;2023-05-10T02:04:43;8.15;;;5.25;;
29568;SDS011;16501;51.462;14.346;2023-05-10T02:07:11;8.48;;;4.50;;
29568;SDS011;16501;51.462;14.346;2023-05-10T02:09:37;13.93;;;5.28;;
29568;SDS011;16501;51.462;14.346;2023-05-10T02:12:03;7.00;;;4.72;;
29568;SDS011;16501;51.462;14.346;2023-05-10T02:14:41;13.10;;;5.85;;
29568;SDS011;16501;51.462;14.346;2023-05-10T02:17:07;11.27;;;4.88;;
29568;SDS011;16501;51.462;14.346;2023-05-10T02:19:34;8.40;;;5.03;;
29568;SDS011;16501;51.462;14.346;2023-05-10T02:22:02;12.40;;;6.07;;
29568;SDS011;16501;51.462;14.346;2023-05-10T02:24:28;7.18;;;5.40;;
29568;SDS011;16501;51.462;14.346;2023-05-10T02:26:55;9.98;;;5.55;;
29568;SDS011;16501;51.462;14.346;2023-05-10T02:29:22;8.75;;;4.78;;
29568;SDS011;16501;51.462;14.346;2023-05-10T02:31:49;7.75;;;4.88;;
29568;SDS011;16501;51.462;14.346;2023-05-10T02:34:17;8.60;;;5.20;;
29568;SDS011;16501;51.462;14.346;2023-05-10T02:36:44;9.00;;;4.85;;
29568;SDS011;16501;51.462;14.346;2023-05-10T02:39:09;10.75;;;5.18;;
29568;SDS011;16501;51.462;14.346;2023-05-10T02:41:38;9.00;;;4.97;;
29568;SDS011;16501;51.462;14.346;2023-05-10T02:44:05;9.50;;;5.13;;
29568;SDS011;16501;51.462;14.346;2023-05-10T02:46:32;9.77;;;4.85;;
29568;SDS011;16501;51.462;14.346;2023-05-10T02:48:58;18.77;;;5.72;;
29568;SDS011;16501;51.462;14.346;2023-05-10T02:51:24;9.25;;;5.05;;
29568;SDS011;16501;51.462;14.346;2023-05-10T02:53:53;9.00;;;5.28;;
29568;SDS011;16501;51.462;14.346;2023-05-10T02:56:24;13.93;;;5.45;;
29568;SDS011;16501;51.462;14.346;2023-05-10T02:58:53;7.38;;;5.10;;
29568;SDS011;16501;51.462;14.346;2023-05-10T03:01:18;7.72;;;4.60;;
29568;SDS011;16501;51.462;14.346;2023-05-10T03:03:44;8.90;;;4.68;;
29568;SDS011;16501;51.462;14.346;2023-05-10T03:06:09;12.27;;;5.25;;
29568;SDS011;16501;51.462;14.346;2023-05-10T03:08:34;9.07;;;4.95;;
29568;SDS011;16501;51.462;14.346;2023-05-10T03:11:09;9.65;;;4.85;;
29568;SDS011;16501;51.462;14.346;2023-05-10T03:14:04;11.52;;;5.30;;
29568;SDS011;16501;51.462;14.346;2023-05-10T03:16:41;9.32;;;5.35;;
29568;SDS011;16501;51.462;14.346;2023-05-10T03:19:20;7.18;;;4.65;;
29568;SDS011;16501;51.462;14.346;2023-05-10T03:21:50;8.23;;;4.95;;
29568;SDS011;16501;51.462;14.346;2023-05-10T03:24:18;8.82;;;4.97;;
29568;SDS011;16501;51.462;14.346;2023-05-10T03:26:46;11.35;;;5.93;;
29568;SDS011;16501;51.462;14.346;2023-05-10T03:29:12;11.32;;;5.13;;
29568;SDS011;16501;51.462;14.346;2023-05-10T03:31:39;8.85;;;5.78;;
29568;SDS011;16501;51.462;14.346;2023-05-10T03:34:05;8.57;;;5.05;;
29568;SDS011;16501;51.462;14.346;2023-05-10T03:36:31;9.25;;;5.35;;
29568;SDS011;16501;51.462;14.346;2023-05-10T03:38:57;7.40;;;4.50;;
29568;SDS011;16501;51.462;14.346;2023-05-10T03:41:22;10.30;;;5.10;;
29568;SDS011;16501;51.462;14.346;2023-05-10T03:43:50;6.18;;;4.95;;
29568;SDS011;16501;51.462;14.346;2023-05-10T03:46:15;7.18;;;4.90;;
29568;SDS011;16501;51.462;14.346;2023-05-10T03:48:41;7.45;;;4.90;;
29568;SDS011;16501;51.462;14.346;2023-05-10T03:51:06;7.80;;;4.80;;
29568;SDS011;16501;51.462;14.346;2023-05-10T03:53:31;9.10;;;4.95;;
29568;SDS011;16501;51.462;14.346;2023-05-10T03:55:56;8.15;;;4.35;;
29568;SDS011;16501;51.462;14.346;2023-05-10T03:58:22;8.35;;;4.57;;
29568;SDS011;16501;51.462;14.346;2023-05-10T04:00:50;9.65;;;4.78;;
29568;SDS011;16501;51.462;14.346;2023-05-10T04:03:16;7.03;;;4.30;;
29568;SDS011;16501;51.462;14.346;2023-05-10T04:05:42;6.55;;;4.70;;
29568;SDS011;16501;51.462;14.346;2023-05-10T04:08:07;8.35;;;4.47;;
29568;SDS011;16501;51.462;14.346;2023-05-10T04:10:32;10.48;;;5.28;;
29568;SDS011;16501;51.462;14.346;2023-05-10T04:12:57;6.00;;;4.30;;
29568;SDS011;16501;51.462;14.346;2023-05-10T04:15:23;8.68;;;4.80;;
29568;SDS011;16501;51.462;14.346;2023-05-10T04:17:48;8.63;;;5.03;;
29568;SDS011;16501;51.462;14.346;2023-05-10T04:20:14;7.85;;;4.45;;
29568;SDS011;16501;51.462;14.346;2023-05-10T04:22:39;7.30;;;4.47;;
29568;SDS011;16501;51.462;14.346;2023-05-10T04:25:04;11.52;;;5.10;;
29568;SDS011;16501;51.462;14.346;2023-05-10T04:27:31;10.52;;;4.82;;
29568;SDS011;16501;51.462;14.346;2023-05-10T04:29:56;9.15;;;4.53;;
29568;SDS011;16501;51.462;14.346;2023-05-10T04:32:22;6.10;;;3.88;;
29568;SDS011;16501;51.462;14.346;2023-05-10T04:34:47;11.00;;;4.07;;
29568;SDS011;16501;51.462;14.346;2023-05-10T04:37:12;11.32;;;4.75;;
29568;SDS011;16501;51.462;14.346;2023-05-10T04:39:37;6.05;;;4.10;;
29568;SDS011;16501;51.462;14.346;2023-05-10T04:42:03;5.40;;;3.83;;
29568;SDS011;16501;51.462;14.346;2023-05-10T04:44:28;8.15;;;4.05;;
29568;SDS011;16501;51.462;14.346;2023-05-10T04:46:54;5.68;;;4.03;;
29568;SDS011;16501;51.462;14.346;2023-05-10T04:49:19;5.28;;;3.40;;
29568;SDS011;16501;51.462;14.346;2023-05-10T04:51:45;7.72;;;3.55;;
29568;SDS011;16501;51.462;14.346;2023-05-10T04:54:10;6.40;;;3.35;;
29568;SDS011;16501;51.462;14.346;2023-05-10T04:56:35;5.55;;;2.90;;
29568;SDS011;16501;51.462;14.346;2023-05-10T04:59:01;7.05;;;3.75;;
29568;SDS011;16501;51.462;14.346;2023-05-10T05:01:26;6.55;;;3.05;;
29568;SDS011;16501;51.462;14.346;2023-05-10T05:03:51;4.65;;;3.20;;
29568;SDS011;16501;51.462;14.346;2023-05-10T05:06:17;4.53;;;3.30;;
29568;SDS011;16501;51.462;14.346;2023-05-10T05:08:43;6.93;;;3.80;;
29568;SDS011;16501;51.462;14.346;2023-05-10T05:11:08;4.13;;;3.17;;
29568;SDS011;16501;51.462;14.346;2023-05-10T05:13:34;5.55;;;2.80;;
29568;SDS011;16501;51.462;14.346;2023-05-10T05:16:00;5.88;;;3.35;;
29568;SDS011;16501;51.462;14.346;2023-05-10T05:18:28;6.70;;;3.35;;
29568;SDS011;16501;51.462;14.346;2023-05-10T05:20:53;3.85;;;2.72;;
29568;SDS011;16501;51.462;14.346;2023-05-10T05:23:19;3.95;;;2.70;;
29568;SDS011;16501;51.462;14.346;2023-05-10T05:25:45;5.25;;;2.42;;
29568;SDS011;16501;51.462;14.346;2023-05-10T05:28:11;4.00;;;2.83;;
29568;SDS011;16501;51.462;14.346;2023-05-10T05:30:36;5.35;;;3.05;;
29568;SDS011;16501;51.462;14.346;2023-05-10T05:33:01;9.90;;;2.92;;
29568;SDS011;16501;51.462;14.346;2023-05-10T05:35:26;3.92;;;2.72;;
29568;SDS011;16501;51.462;14.346;2023-05-10T05:37:52;8.38;;;3.10;;
29568;SDS011;16501;51.462;14.346;2023-05-10T05:40:17;4.85;;;2.65;;
29568;SDS011;16501;51.462;14.346;2023-05-10T05:42:42;9.90;;;2.90;;
29568;SDS011;16501;51.462;14.346;2023-05-10T05:45:08;6.70;;;3.17;;
29568;SDS011;16501;51.462;14.346;2023-05-10T05:47:34;11.48;;;3.30;;
29568;SDS011;16501;51.462;14.346;2023-05-10T05:49:59;8.27;;;3.58;;
29568;SDS011;16501;51.462;14.346;2023-05-10T05:52:24;4.35;;;2.63;;
29568;SDS011;16501;51.462;14.346;2023-05-10T05:54:49;4.10;;;2.80;;
29568;SDS011;16501;51.462;14.346;2023-05-10T05:57:15;3.85;;;2.78;;
29568;SDS011;16501;51.462;14.346;2023-05-10T05:59:40;6.63;;;2.58;;
29568;SDS011;16501;51.462;14.346;2023-05-10T06:02:09;5.65;;;2.75;;
29568;SDS011;16501;51.462;14.346;2023-05-10T06:04:34;9.35;;;3.30;;
29568;SDS011;16501;51.462;14.346;2023-05-10T06:06:59;9.23;;;2.78;;
29568;SDS011;16501;51.462;14.346;2023-05-10T06:09:25;4.30;;;2.50;;
29568;SDS011;16501;51.462;14.346;2023-05-10T06:11:50;5.95;;;2.42;;
29568;SDS011;16501;51.462;14.346;2023-05-10T06:14:15;4.05;;;2.10;;
29568;SDS011;16501;51.462;14.346;2023-05-10T06:16:40;5.68;;;2.53;;
29568;SDS011;16501;51.462;14.346;2023-05-10T06:19:06;3.72;;;2.03;;
29568;SDS011;16501;51.462;14.346;2023-05-10T06:21:31;3.35;;;2.25;;
29568;SDS011;16501;51.462;14.346;2023-05-10T06:23:56;3.33;;;1.90;;
29568;SDS011;16501;51.462;14.346;2023-05-10T06:26:21;4.88;;;2.03;;
29568;SDS011;16501;51.462;14.346;2023-05-10T06:28:47;3.15;;;1.90;;
29568;SDS011;16501;51.462;14.346;2023-05-10T06:31:12;5.68;;;2.10;;
29568;SDS011;16501;51.462;14.346;2023-05-10T06:33:37;3.92;;;2.00;;
29568;SDS011;16501;51.462;14.346;2023-05-10T06:36:03;6.28;;;1.58;;
29568;SDS011;16501;51.462;14.346;2023-05-10T06:38:28;2.60;;;1.80;;
29568;SDS011;16501;51.462;14.346;2023-05-10T06:40:54;6.47;;;2.75;;
29568;SDS011;16501;51.462;14.346;2023-05-10T06:43:19;2.72;;;2.00;;
29568;SDS011;16501;51.462;14.346;2023-05-10T06:45:44;8.43;;;2.35;;
29568;SDS011;16501;51.462;14.346;2023-05-10T06:48:10;3.03;;;2.13;;
29568;SDS011;16501;51.462;14.346;2023-05-10T06:50:35;3.28;;;2.03;;
29568;SDS011;16501;51.462;14.346;2023-05-10T06:53:01;6.10;;;2.20;;
29568;SDS011;16501;51.462;14.346;2023-05-10T06:55:29;6.95;;;2.00;;
29568;SDS011;16501;51.462;14.346;2023-05-10T06:57:54;5.22;;;2.20;;
29568;SDS011;16501;51.462;14.346;2023-05-10T07:00:20;5.65;;;2.08;;
29568;SDS011;16501;51.462;14.346;2023-05-10T07:02:45;3.25;;;2.40;;
29568;SDS011;16501;51.462;14.346;2023-05-10T07:05:11;6.95;;;2.20;;
29568;SDS011;16501;51.462;14.346;2023-05-10T07:07:37;3.97;;;2.30;;
29568;SDS011;16501;51.462;14.346;2023-05-10T07:10:02;2.33;;;1.98;;
29568;SDS011;16501;51.462;14.346;2023-05-10T07:12:28;3.63;;;2.40;;
29568;SDS011;16501;51.462;14.346;2023-05-10T07:14:53;6.25;;;3.03;;
29568;SDS011;16501;51.462;14.346;2023-05-10T07:17:18;5.35;;;2.55;;
29568;SDS011;16501;51.462;14.346;2023-05-10T07:19:43;3.47;;;2.15;;
29568;SDS011;16501;51.462;14.346;2023-05-10T07:22:09;2.80;;;2.05;;
29568;SDS011;16501;51.462;14.346;2023-05-10T07:24:34;3.33;;;2.50;;
29568;SDS011;16501;51.462;14.346;2023-05-10T07:27:00;6.53;;;2.45;;
29568;SDS011;16501;51.462;14.346;2023-05-10T07:29:25;4.50;;;2.42;;
29568;SDS011;16501;51.462;14.346;2023-05-10T07:31:51;4.50;;;2.10;;
29568;SDS011;16501;51.462;14.346;2023-05-10T07:34:16;2.80;;;2.30;;
29568;SDS011;16501;51.462;14.346;2023-05-10T07:36:41;4.57;;;1.98;;
29568;SDS011;16501;51.462;14.346;2023-05-10T07:39:06;5.05;;;2.50;;
29568;SDS011;16501;51.462;14.346;2023-05-10T07:41:32;3.33;;;2.13;;
29568;SDS011;16501;51.462;14.346;2023-05-10T07:43:58;3.92;;;2.47;;
29568;SDS011;16501;51.462;14.346;2023-05-10T07:46:23;10.00;;;2.30;;
29568;SDS011;16501;51.462;14.346;2023-05-10T07:48:48;3.72;;;2.40;;
29568;SDS011;16501;51.462;14.346;2023-05-10T07:51:14;3.33;;;2.42;;
29568;SDS011;16501;51.462;14.346;2023-05-10T07:53:39;5.63;;;2.35;;
29568;SDS011;16501;51.462;14.346;2023-05-10T07:58:48;2.35;;;1.92;;
29568;SDS011;16501;51.462;14.346;2023-05-10T08:01:14;4.25;;;2.38;;
29568;SDS011;16501;51.462;14.346;2023-05-10T08:03:39;4.57;;;2.20;;
29568;SDS011;16501;51.462;14.346;2023-05-10T08:06:04;3.90;;;2.15;;
29568;SDS011;16501;51.462;14.346;2023-05-10T08:08:30;10.10;;;2.58;;
29568;SDS011;16501;51.462;14.346;2023-05-10T08:10:56;9.43;;;2.30;;
29568;SDS011;16501;51.462;14.346;2023-05-10T08:13:21;6.50;;;2.25;;
29568;SDS011;16501;51.462;14.346;2023-05-10T08:15:46;3.10;;;1.98;;
29568;SDS011;16501;51.462;14.346;2023-05-10T08:18:12;2.47;;;1.98;;
29568;SDS011;16501;51.462;14.346;2023-05-10T08:20:37;5.03;;;2.20;;
29568;SDS011;16501;51.462;14.346;2023-05-10T08:23:02;7.15;;;2.35;;
29568;SDS011;16501;51.462;14.346;2023-05-10T08:25:28;4.70;;;3.45;;
29568;SDS011;16501;51.462;14.346;2023-05-10T08:27:53;4.18;;;2.55;;
29568;SDS011;16501;51.462;14.346;2023-05-10T08:30:18;6.60;;;2.08;;
29568;SDS011;16501;51.462;14.346;2023-05-10T08:32:44;4.22;;;1.98;;
29568;SDS011;16501;51.462;14.346;2023-05-10T08:35:09;7.90;;;2.03;;
29568;SDS011;16501;51.462;14.346;2023-05-10T08:37:34;4.05;;;2.05;;
29568;SDS011;16501;51.462;14.346;2023-05-10T08:39:59;6.90;;;2.38;;
29568;SDS011;16501;51.462;14.346;2023-05-10T08:42:25;4.30;;;2.22;;
29568;SDS011;16501;51.462;14.346;2023-05-10T08:44:55;2.88;;;2.20;;
29568;SDS011;16501;51.462;14.346;2023-05-10T08:47:22;2.75;;;2.17;;
29568;SDS011;16501;51.462;14.346;2023-05-10T08:49:48;1.98;;;1.80;;
29568;SDS011;16501;51.462;14.346;2023-05-10T08:52:16;4.80;;;2.03;;
29568;SDS011;16501;51.462;14.346;2023-05-10T08:54:42;4.45;;;2.60;;
29568;SDS011;16501;51.462;14.346;2023-05-10T08:57:08;5.60;;;2.38;;
29568;SDS011;16501;51.462;14.346;2023-05-10T08:59:35;4.43;;;1.88;;
29568;SDS011;16501;51.462;14.346;2023-05-10T09:02:03;2.35;;;1.98;;
29568;SDS011;16501;51.462;14.346;2023-05-10T09:04:29;5.22;;;2.30;;
29568;SDS011;16501;51.462;14.346;2023-05-10T09:06:55;2.83;;;2.10;;
29568;SDS011;16501;51.462;14.346;2023-05-10T09:09:21;5.20;;;2.60;;
29568;SDS011;16501;51.462;14.346;2023-05-10T09:11:47;4.70;;;2.33;;
29568;SDS011;16501;51.462;14.346;2023-05-10T09:14:12;2.75;;;2.20;;
29568;SDS011;16501;51.462;14.346;2023-05-10T09:16:39;6.35;;;2.10;;
29568;SDS011;16501;51.462;14.346;2023-05-10T09:19:05;4.70;;;2.13;;
29568;SDS011;16501;51.462;14.346;2023-05-10T09:21:30;2.97;;;2.50;;
29568;SDS011;16501;51.462;14.346;2023-05-10T09:23:56;7.18;;;2.35;;
29568;SDS011;16501;51.462;14.346;2023-05-10T09:26:22;3.78;;;2.35;;
29568;SDS011;16501;51.462;14.346;2023-05-10T09:28:55;4.47;;;2.10;;
29568;SDS011;16501;51.462;14.346;2023-05-10T09:31:22;4.75;;;2.15;;
29568;SDS011;16501;51.462;14.346;2023-05-10T09:33:48;3.03;;;1.63;;
29568;SDS011;16501;51.462;14.346;2023-05-10T09:36:14;4.05;;;2.13;;
29568;SDS011;16501;51.462;14.346;2023-05-10T09:38:50;4.45;;;2.20;;
29568;SDS011;16501;51.462;14.346;2023-05-10T09:41:23;3.72;;;2.25;;
29568;SDS011;16501;51.462;14.346;2023-05-10T09:43:49;2.97;;;2.08;;
29568;SDS011;16501;51.462;14.346;2023-05-10T09:46:15;5.65;;;2.33;;
29568;SDS011;16501;51.462;14.346;2023-05-10T09:48:45;2.92;;;2.35;;
29568;SDS011;16501;51.462;14.346;2023-05-10T09:51:23;3.57;;;2.40;;
29568;SDS011;16501;51.462;14.346;2023-05-10T09:56:41;6.28;;;2.20;;
29568;SDS011;16501;51.462;14.346;2023-05-10T09:59:09;3.83;;;2.28;;
29568;SDS011;16501;51.462;14.346;2023-05-10T10:01:36;5.15;;;2.35;;
29568;SDS011;16501;51.462;14.346;2023-05-10T10:04:02;3.90;;;2.35;;
29568;SDS011;16501;51.462;14.346;2023-05-10T10:06:29;4.80;;;2.20;;
29568;SDS011;16501;51.462;14.346;2023-05-10T10:09:03;11.15;;;2.25;;
29568;SDS011;16501;51.462;14.346;2023-05-10T10:11:29;4.65;;;1.95;;
29568;SDS011;16501;51.462;14.346;2023-05-10T10:13:54;6.20;;;2.20;;
29568;SDS011;16501;51.462;14.346;2023-05-10T10:16:20;10.48;;;2.20;;
29568;SDS011;16501;51.462;14.346;2023-05-10T10:18:45;2.65;;;1.95;;
29568;SDS011;16501;51.462;14.346;2023-05-10T10:21:12;5.10;;;2.40;;
29568;SDS011;16501;51.462;14.346;2023-05-10T10:23:38;6.05;;;2.15;;
29568;SDS011;16501;51.462;14.346;2023-05-10T10:26:04;3.75;;;1.92;;
29568;SDS011;16501;51.462;14.346;2023-05-10T10:28:41;5.32;;;2.03;;
29568;SDS011;16501;51.462;14.346;2023-05-10T10:31:32;4.22;;;2.20;;
29568;SDS011;16501;51.462;14.346;2023-05-10T10:34:07;8.02;;;2.40;;
29568;SDS011;16501;51.462;14.346;2023-05-10T10:36:42;2.78;;;2.17;;
29568;SDS011;16501;51.462;14.346;2023-05-10T10:39:10;3.22;;;2.03;;
29568;SDS011;16501;51.462;14.346;2023-05-10T10:41:36;4.40;;;2.03;;
29568;SDS011;16501;51.462;14.346;2023-05-10T10:47:01;4.43;;;1.98;;
29568;SDS011;16501;51.462;14.346;2023-05-10T10:49:33;2.88;;;1.90;;
